Time;durP1;ratioP1;P1;durP2;ratioP2;P2;SDS_P1;SDS_P2;PMS_P1;PMS_P2;Temp;Humidity;BMP_temperature;BMP_pressure;BME280_temperature;BME280_humidity;BME280_pressure;Samples;Min_cycle;Max_cycle;Signal;HPM_P1;HPM_P2
2022/01/01 00:02:14;;;;;;;17.90;8.20;;;10.50;99.90;;;;;;5032123;28;20408;-71
2022/01/01 00:04:42;;;;;;;17.40;8.67;;;10.50;99.90;;;;;;5020317;28;20418;-69
2022/01/01 00:07:09;;;;;;;18.03;7.60;;;10.50;99.90;;;;;;5031794;28;20654;-69
2022/01/01 00:09:35;;;;;;;24.13;7.73;;;10.50;99.90;;;;;;5032721;28;20976;-69
2022/01/01 00:12:01;;;;;;;18.33;7.57;;;10.50;99.90;;;;;;5031878;28;20449;-71
2022/01/01 00:14:28;;;;;;;11.10;7.47;;;10.60;99.90;;;;;;5031413;28;20417;-69
2022/01/01 00:16:54;;;;;;;14.77;8.20;;;10.50;99.90;;;;;;5033137;28;20436;-70
2022/01/01 00:19:19;;;;;;;14.00;8.50;;;10.60;99.90;;;;;;5032864;28;20418;-72
2022/01/01 00:21:45;;;;;;;11.23;8.57;;;10.60;99.90;;;;;;5032378;28;20171;-68
2022/01/01 00:24:11;;;;;;;14.30;6.83;;;10.50;99.90;;;;;;5031656;28;20187;-71
2022/01/01 00:26:37;;;;;;;10.30;6.50;;;10.50;99.90;;;;;;5032369;28;20191;-71
2022/01/01 00:29:03;;;;;;;20.23;8.10;;;10.50;99.90;;;;;;5032879;28;20455;-70
2022/01/01 00:31:29;;;;;;;20.43;7.67;;;10.60;99.90;;;;;;5032469;28;20250;-67
2022/01/01 00:33:55;;;;;;;12.03;7.27;;;10.60;99.90;;;;;;5031600;28;20557;-69
2022/01/01 00:36:20;;;;;;;12.87;6.60;;;10.60;99.90;;;;;;5031210;28;20199;-70
2022/01/01 00:38:46;;;;;;;11.77;5.67;;;10.60;99.90;;;;;;5032787;28;20456;-68
2022/01/01 00:41:12;;;;;;;6.37;5.67;;;10.60;99.90;;;;;;5035443;28;20218;-69
2022/01/01 00:43:38;;;;;;;11.47;5.63;;;10.60;99.90;;;;;;5033966;28;20414;-70
2022/01/01 00:46:04;;;;;;;9.67;5.50;;;10.60;99.90;;;;;;5034843;28;20200;-71
2022/01/01 00:48:30;;;;;;;8.70;3.87;;;10.60;99.90;;;;;;5036455;28;20428;-67
2022/01/01 00:50:57;;;;;;;11.00;4.77;;;10.60;99.90;;;;;;5034695;28;20225;-70
2022/01/01 00:53:22;;;;;;;12.70;5.27;;;10.60;99.90;;;;;;5035136;28;20295;-71
2022/01/01 00:55:48;;;;;;;12.07;4.97;;;10.60;99.90;;;;;;5034412;28;20529;-71
2022/01/01 00:58:14;;;;;;;10.67;5.53;;;10.50;99.90;;;;;;5035923;28;20220;-72
2022/01/01 01:00:39;;;;;;;10.07;4.60;;;10.50;99.90;;;;;;5035051;28;20171;-69
2022/01/01 01:03:16;;;;;;;10.43;5.53;;;10.50;99.90;;;;;;5035183;28;20182;-69
2022/01/01 01:05:44;;;;;;;6.23;5.07;;;10.40;99.90;;;;;;5035538;28;20198;-71
2022/01/01 01:08:11;;;;;;;8.10;4.67;;;10.40;99.90;;;;;;5035634;28;20497;-71
2022/01/01 01:10:38;;;;;;;9.70;4.90;;;10.40;99.90;;;;;;5035686;28;20456;-70
2022/01/01 01:13:04;;;;;;;22.00;5.07;;;10.40;99.90;;;;;;5033481;28;20863;-70
2022/01/01 01:15:32;;;;;;;10.93;3.97;;;10.40;99.90;;;;;;5035061;28;20915;-71
2022/01/01 01:17:58;;;;;;;9.63;3.77;;;10.30;99.90;;;;;;5035324;28;20395;-70
2022/01/01 01:20:26;;;;;;;17.83;5.27;;;10.40;99.90;;;;;;5035054;28;20417;-68
2022/01/01 01:22:52;;;;;;;10.90;4.10;;;10.30;99.90;;;;;;5034683;28;20398;-71
2022/01/01 01:25:17;;;;;;;6.47;3.60;;;10.40;99.90;;;;;;5035374;28;20497;-70
2022/01/01 01:27:44;;;;;;;6.67;4.27;;;10.30;99.90;;;;;;5034239;28;20516;-71
2022/01/01 01:30:14;;;;;;;4.60;4.20;;;10.30;99.90;;;;;;5035156;28;20235;-71
2022/01/01 01:32:39;;;;;;;13.33;4.07;;;10.30;99.90;;;;;;5034434;28;20510;-71
2022/01/01 01:35:06;;;;;;;23.90;9.57;;;10.30;99.90;;;;;;5027869;28;20820;-69
2022/01/01 01:37:32;;;;;;;5.53;3.80;;;10.30;99.90;;;;;;5014928;28;20557;-68
2022/01/01 01:39:58;;;;;;;11.27;4.87;;;10.30;99.90;;;;;;5022146;28;20805;-71
2022/01/01 01:42:26;;;;;;;22.83;5.03;;;10.30;99.90;;;;;;5034194;28;20384;-70
2022/01/01 01:44:53;;;;;;;12.57;4.73;;;10.30;99.90;;;;;;5034874;28;20422;-71
2022/01/01 01:47:31;;;;;;;9.60;4.50;;;10.30;99.90;;;;;;5035067;28;20505;-71
2022/01/01 01:49:59;;;;;;;9.63;4.20;;;10.30;99.90;;;;;;5034766;28;20414;-70
2022/01/01 01:52:30;;;;;;;7.80;4.80;;;10.30;99.90;;;;;;5032622;28;20465;-69
2022/01/01 01:54:56;;;;;;;6.10;4.03;;;10.30;99.90;;;;;;5034868;28;20426;-70
2022/01/01 01:57:23;;;;;;;8.97;3.60;;;10.30;99.90;;;;;;5033444;28;20438;-72
2022/01/01 01:59:52;;;;;;;7.60;3.40;;;10.30;99.90;;;;;;5033600;28;20198;-69
2022/01/01 02:02:17;;;;;;;12.50;3.43;;;10.30;99.90;;;;;;5032814;28;20657;-71
2022/01/01 02:04:43;;;;;;;8.23;3.30;;;10.30;99.90;;;;;;5034428;28;20405;-69
2022/01/01 02:07:11;;;;;;;8.17;3.97;;;10.30;99.90;;;;;;5033410;28;20195;-69
2022/01/01 02:09:38;;;;;;;6.70;3.20;;;10.30;99.90;;;;;;5034493;28;20170;-70
2022/01/01 02:12:07;;;;;;;9.23;3.40;;;10.30;99.90;;;;;;5033741;28;20980;-69
2022/01/01 02:17:21;;;;;;;6.33;2.93;;;10.20;99.90;;;;;;5014253;28;20476;-72
2022/01/01 02:19:49;;;;;;;12.10;3.23;;;10.20;99.90;;;;;;5018739;28;20500;-71
2022/01/01 02:22:15;;;;;;;9.60;3.20;;;10.20;99.90;;;;;;5032400;28;20421;-71
2022/01/01 02:24:41;;;;;;;17.17;3.93;;;10.20;99.90;;;;;;5032550;28;20428;-72
2022/01/01 02:27:08;;;;;;;11.07;4.07;;;10.20;99.90;;;;;;5034235;28;20190;-72
2022/01/01 02:29:34;;;;;;;14.23;4.40;;;10.20;99.90;;;;;;5034000;28;20424;-71
2022/01/01 02:32:00;;;;;;;12.00;4.40;;;10.10;99.90;;;;;;5032043;28;20440;-75
2022/01/01 02:34:25;;;;;;;17.47;4.00;;;10.20;99.90;;;;;;5033077;28;20426;-72
2022/01/01 02:36:51;;;;;;;12.63;3.30;;;10.10;99.90;;;;;;5034008;28;20687;-72
2022/01/01 02:39:22;;;;;;;9.90;3.57;;;10.10;99.90;;;;;;5032588;28;20240;-72
2022/01/01 02:41:51;;;;;;;10.87;2.77;;;10.10;99.90;;;;;;5032953;28;20250;-70
2022/01/01 02:44:19;;;;;;;12.50;5.27;;;10.10;99.90;;;;;;5033172;28;20414;-71
2022/01/01 02:46:45;;;;;;;15.83;4.10;;;10.10;99.90;;;;;;5033877;28;20442;-72
2022/01/01 02:49:10;;;;;;;5.13;2.73;;;10.10;99.90;;;;;;5032205;28;20981;-72
2022/01/01 02:51:36;;;;;;;8.80;3.57;;;10.10;99.90;;;;;;5032194;28;20533;-71
2022/01/01 02:54:02;;;;;;;13.13;3.33;;;10.10;99.90;;;;;;5032833;28;20229;-72
2022/01/01 02:56:28;;;;;;;9.90;3.63;;;10.10;99.90;;;;;;5032207;28;20208;-72
2022/01/01 02:58:53;;;;;;;11.90;3.03;;;10.20;99.90;;;;;;5033687;28;20172;-73
2022/01/01 03:01:19;;;;;;;23.07;4.40;;;10.10;99.90;;;;;;5033616;28;20232;-71
2022/01/01 03:03:46;;;;;;;4.13;2.53;;;10.10;99.90;;;;;;5031163;28;20263;-72
2022/01/01 03:06:19;;;;;;;14.43;4.50;;;10.10;99.90;;;;;;5033395;28;20195;-71
2022/01/01 03:08:48;;;;;;;23.10;3.40;;;10.10;99.90;;;;;;5032188;28;20516;-71
2022/01/01 03:11:14;;;;;;;16.77;3.63;;;10.10;99.90;;;;;;5031737;28;20417;-71
2022/01/01 03:13:40;;;;;;;8.20;3.00;;;10.10;99.90;;;;;;5032647;28;21024;-71
2022/01/01 03:16:05;;;;;;;13.50;3.70;;;10.10;99.90;;;;;;5032268;28;20532;-72
2022/01/01 03:18:31;;;;;;;6.80;2.77;;;10.10;99.90;;;;;;5032531;28;20178;-71
2022/01/01 03:20:57;;;;;;;14.73;3.77;;;10.00;99.90;;;;;;5031873;28;20171;-71
2022/01/01 03:23:22;;;;;;;7.10;3.50;;;10.10;99.90;;;;;;5032329;28;20190;-71
2022/01/01 03:25:48;;;;;;;8.73;2.97;;;10.00;99.90;;;;;;5033048;28;20183;-72
2022/01/01 03:28:13;;;;;;;16.53;6.23;;;10.00;99.90;;;;;;5032866;28;20173;-72
2022/01/01 03:30:39;;;;;;;6.30;2.93;;;10.00;99.90;;;;;;5033460;28;20265;-72
2022/01/01 03:33:05;;;;;;;4.93;3.03;;;10.00;99.90;;;;;;5031966;28;20198;-71
2022/01/01 03:35:30;;;;;;;9.20;3.63;;;10.10;99.90;;;;;;5033006;28;20170;-74
2022/01/01 03:37:56;;;;;;;14.63;5.73;;;10.00;99.90;;;;;;5016878;28;20207;-72
2022/01/01 03:40:22;;;;;;;7.83;3.43;;;9.90;99.90;;;;;;5013486;28;20168;-72
2022/01/01 03:42:47;;;;;;;13.33;4.63;;;9.90;99.90;;;;;;5029691;28;20186;-71
2022/01/01 03:45:13;;;;;;;19.60;5.17;;;9.90;99.90;;;;;;5031436;28;20181;-73
2022/01/01 03:47:38;;;;;;;17.77;4.33;;;9.90;99.90;;;;;;5032959;28;20199;-72
2022/01/01 03:50:04;;;;;;;11.87;4.10;;;9.90;99.90;;;;;;5033247;28;20209;-71
2022/01/01 03:52:30;;;;;;;10.13;5.47;;;9.90;99.90;;;;;;5030206;28;20275;-73
2022/01/01 03:54:56;;;;;;;5.93;4.30;;;9.90;99.90;;;;;;5033073;28;20499;-72
2022/01/01 03:57:21;;;;;;;10.83;3.80;;;9.90;99.90;;;;;;5024399;28;20281;-71
2022/01/01 03:59:47;;;;;;;20.70;5.43;;;9.80;99.90;;;;;;5028479;28;20175;-72
2022/01/01 04:02:14;;;;;;;12.90;4.43;;;9.80;99.90;;;;;;5027348;28;20180;-72
2022/01/01 04:04:40;;;;;;;20.87;4.73;;;9.80;99.90;;;;;;5032686;28;20387;-72
2022/01/01 04:07:08;;;;;;;17.80;4.80;;;9.80;99.90;;;;;;5032616;28;20500;-73
2022/01/01 04:09:33;;;;;;;14.67;4.23;;;9.80;99.90;;;;;;5032934;28;20471;-72
2022/01/01 04:11:59;;;;;;;25.27;4.23;;;9.80;99.90;;;;;;5030777;28;20433;-75
2022/01/01 04:14:24;;;;;;;9.50;5.20;;;9.80;99.90;;;;;;5033414;28;20170;-72
2022/01/01 04:16:52;;;;;;;9.07;4.80;;;9.90;99.90;;;;;;5035221;28;20194;-72
2022/01/01 04:19:17;;;;;;;11.00;4.60;;;9.80;99.90;;;;;;5035446;28;20195;-72
2022/01/01 04:21:43;;;;;;;15.77;4.90;;;9.80;99.80;;;;;;5035974;28;21017;-72
2022/01/01 04:24:09;;;;;;;10.60;4.13;;;9.90;99.30;;;;;;5035807;28;20155;-73
2022/01/01 04:26:35;;;;;;;9.33;3.90;;;9.80;97.40;;;;;;5036275;28;20225;-72
2022/01/01 04:29:00;;;;;;;8.20;3.93;;;9.80;97.40;;;;;;5036608;28;20412;-72
2022/01/01 04:31:26;;;;;;;7.50;3.50;;;9.80;96.20;;;;;;5036137;28;20256;-74
2022/01/01 04:33:52;;;;;;;11.17;4.60;;;9.70;95.80;;;;;;5035478;28;20294;-72
2022/01/01 04:36:17;;;;;;;8.67;4.60;;;9.80;96.30;;;;;;5036242;28;20198;-73
2022/01/01 04:38:44;;;;;;;18.50;5.30;;;9.80;95.90;;;;;;5036074;28;20528;-72
2022/01/01 04:41:16;;;;;;;20.23;4.20;;;9.80;95.50;;;;;;5036182;28;20171;-72
2022/01/01 04:43:43;;;;;;;15.80;6.93;;;9.80;94.90;;;;;;5034053;28;20421;-73
2022/01/01 04:46:10;;;;;;;11.60;3.37;;;9.80;94.60;;;;;;5036157;28;20470;-72
2022/01/01 04:48:37;;;;;;;10.67;4.07;;;9.80;95.10;;;;;;5036357;28;20453;-73
2022/01/01 04:51:07;;;;;;;21.50;5.73;;;9.80;93.60;;;;;;5034146;28;20425;-73
2022/01/01 04:53:39;;;;;;;21.83;4.43;;;9.80;93.60;;;;;;5015363;28;20456;-73
2022/01/01 04:56:07;;;;;;;19.90;6.60;;;9.80;93.90;;;;;;5020703;28;20436;-73
2022/01/01 04:58:33;;;;;;;9.70;4.20;;;9.80;93.60;;;;;;5036142;28;20454;-72
2022/01/01 05:00:59;;;;;;;10.67;5.07;;;9.80;93.50;;;;;;5035932;28;20444;-72
2022/01/01 05:03:24;;;;;;;10.87;4.40;;;9.70;91.30;;;;;;5035096;28;20440;-72
2022/01/01 05:05:50;;;;;;;7.60;4.00;;;9.70;91.50;;;;;;5034928;28;20267;-72
2022/01/01 05:08:15;;;;;;;27.90;6.40;;;9.70;89.90;;;;;;5034860;28;20171;-72
2022/01/01 05:10:41;;;;;;;7.60;4.57;;;9.70;91.30;;;;;;5035606;28;20223;-73
2022/01/01 05:13:07;;;;;;;9.50;4.80;;;9.80;91.40;;;;;;5033673;28;20194;-72
2022/01/01 05:15:32;;;;;;;19.70;4.97;;;9.80;90.80;;;;;;5034975;28;20199;-73
2022/01/01 05:17:58;;;;;;;16.50;4.30;;;9.80;91.10;;;;;;5035531;28;20499;-73
2022/01/01 05:20:24;;;;;;;9.80;4.77;;;9.70;89.00;;;;;;5035462;28;20691;-72
2022/01/01 05:22:49;;;;;;;28.37;4.43;;;9.70;89.00;;;;;;5034829;28;20169;-72
2022/01/01 05:25:15;;;;;;;9.67;4.27;;;9.70;89.00;;;;;;5035017;28;20261;-72
2022/01/01 05:27:42;;;;;;;12.47;4.77;;;9.70;89.00;;;;;;5035398;28;20281;-73
2022/01/01 05:30:09;;;;;;;19.73;5.87;;;9.70;86.30;;;;;;5035158;28;20174;-72
2022/01/01 05:32:34;;;;;;;20.07;4.77;;;9.60;86.70;;;;;;5034329;28;20453;-73
2022/01/01 05:35:00;;;;;;;19.10;5.50;;;9.60;86.80;;;;;;5034922;28;20427;-72
2022/01/01 05:37:26;;;;;;;11.20;4.43;;;9.60;88.90;;;;;;5035449;28;20198;-73
2022/01/01 05:39:51;;;;;;;8.87;3.90;;;9.60;87.30;;;;;;5033994;28;20180;-73
2022/01/01 05:42:17;;;;;;;14.57;3.90;;;9.60;88.90;;;;;;5034410;28;20284;-73
2022/01/01 05:44:43;;;;;;;8.03;4.00;;;9.50;88.80;;;;;;5035112;28;20179;-72
2022/01/01 05:47:08;;;;;;;23.63;5.33;;;9.50;88.80;;;;;;5035011;28;20191;-73
2022/01/01 05:49:34;;;;;;;18.93;4.23;;;9.50;88.90;;;;;;5034829;28;20182;-72
2022/01/01 05:51:59;;;;;;;15.00;4.73;;;9.60;88.90;;;;;;5033835;28;20529;-76
2022/01/01 05:54:25;;;;;;;7.90;3.60;;;9.50;88.80;;;;;;5033361;28;20231;-72
2022/01/01 05:56:51;;;;;;;10.57;4.03;;;9.50;88.80;;;;;;5033900;28;20201;-72
2022/01/01 05:59:16;;;;;;;21.93;6.40;;;9.50;88.90;;;;;;5033477;28;20173;-73
2022/01/01 06:01:42;;;;;;;21.23;4.70;;;9.50;88.90;;;;;;5034937;28;20643;-73
2022/01/01 06:04:07;;;;;;;6.67;4.70;;;9.50;89.90;;;;;;5033872;28;20169;-73
2022/01/01 06:06:33;;;;;;;8.10;4.93;;;9.50;90.30;;;;;;5034413;28;20195;-72
2022/01/01 06:08:59;;;;;;;7.63;4.70;;;9.50;91.30;;;;;;5033245;28;20168;-72
2022/01/01 06:11:25;;;;;;;7.80;4.70;;;9.50;91.00;;;;;;5033772;28;20536;-72
2022/01/01 06:13:50;;;;;;;12.53;6.53;;;9.50;90.90;;;;;;5033698;28;20461;-72
2022/01/01 06:16:16;;;;;;;18.27;6.30;;;9.50;90.90;;;;;;5034149;28;20307;-73
2022/01/01 06:18:42;;;;;;;12.80;5.23;;;9.50;90.80;;;;;;5034670;28;20285;-74
2022/01/01 06:21:07;;;;;;;19.43;5.00;;;9.50;90.90;;;;;;5033114;28;20217;-72
2022/01/01 06:23:37;;;;;;;11.23;5.27;;;9.50;91.10;;;;;;5032334;28;20248;-72
2022/01/01 06:26:06;;;;;;;12.67;7.03;;;9.50;91.80;;;;;;5017161;28;20565;-72
2022/01/01 06:28:31;;;;;;;33.70;6.53;;;9.50;91.50;;;;;;5014069;28;20416;-73
2022/01/01 06:30:57;;;;;;;18.03;7.63;;;9.50;92.00;;;;;;5032339;28;20429;-73
2022/01/01 06:33:23;;;;;;;25.63;7.40;;;9.50;91.60;;;;;;5033285;28;20607;-72
2022/01/01 06:35:48;;;;;;;19.87;7.67;;;9.50;91.80;;;;;;5033894;28;20682;-72
2022/01/01 06:38:15;;;;;;;20.20;6.30;;;9.50;92.40;;;;;;5033636;28;20703;-74
2022/01/01 06:40:42;;;;;;;18.03;8.27;;;9.50;92.10;;;;;;5033334;28;20176;-71
2022/01/01 06:43:10;;;;;;;14.10;6.37;;;9.50;92.00;;;;;;5031950;28;20771;-74
2022/01/01 06:45:36;;;;;;;19.37;6.67;;;9.50;92.20;;;;;;5032446;28;20941;-73
2022/01/01 06:48:02;;;;;;;19.20;8.53;;;9.60;93.50;;;;;;5033569;28;20489;-73
2022/01/01 06:50:29;;;;;;;18.77;8.03;;;9.60;93.50;;;;;;5033548;28;20746;-74
2022/01/01 06:52:54;;;;;;;14.30;7.37;;;9.50;92.20;;;;;;5031745;28;20449;-74
2022/01/01 06:55:20;;;;;;;15.97;6.57;;;9.60;92.30;;;;;;5032967;28;20412;-73
2022/01/01 06:57:46;;;;;;;14.13;7.30;;;9.60;91.40;;;;;;5032210;28;20187;-72
2022/01/01 07:00:13;;;;;;;9.60;7.10;;;9.50;90.20;;;;;;5032476;28;20168;-73
2022/01/01 07:02:47;;;;;;;19.57;7.67;;;9.50;90.70;;;;;;5032468;28;20421;-72
2022/01/01 07:05:14;;;;;;;11.10;7.50;;;9.50;90.10;;;;;;5033366;28;20981;-72
2022/01/01 07:07:39;;;;;;;24.93;8.90;;;9.50;90.20;;;;;;5031929;28;20438;-72
2022/01/01 07:10:07;;;;;;;17.33;7.80;;;9.50;90.80;;;;;;5033771;28;20414;-72
2022/01/01 07:12:37;;;;;;;16.80;7.93;;;9.50;91.20;;;;;;5031050;28;20694;-73
2022/01/01 07:15:05;;;;;;;27.43;8.17;;;9.50;91.30;;;;;;5032273;28;20447;-72
2022/01/01 07:17:30;;;;;;;12.63;6.63;;;9.50;92.20;;;;;;5033339;28;20444;-73
2022/01/01 07:19:56;;;;;;;19.40;8.53;;;9.50;92.90;;;;;;5032219;28;20420;-71
2022/01/01 07:22:21;;;;;;;23.43;9.70;;;9.50;93.40;;;;;;5032468;28;20233;-72
2022/01/01 07:24:49;;;;;;;19.37;9.50;;;9.50;93.70;;;;;;5033306;28;20665;-72
2022/01/01 07:27:15;;;;;;;16.30;10.50;;;9.60;94.60;;;;;;5032277;28;20202;-72
2022/01/01 07:29:41;;;;;;;18.20;9.67;;;9.50;94.60;;;;;;5033545;28;20838;-72
2022/01/01 07:32:06;;;;;;;23.27;12.13;;;9.50;95.00;;;;;;5025457;28;20432;-72
2022/01/01 07:34:32;;;;;;;39.07;13.53;;;9.50;96.40;;;;;;5013728;28;20178;-72
2022/01/01 07:36:58;;;;;;;23.90;10.80;;;9.60;97.30;;;;;;5023280;28;20448;-71
2022/01/01 07:39:24;;;;;;;36.53;13.40;;;9.60;97.30;;;;;;5033436;28;20174;-72
2022/01/01 07:41:49;;;;;;;16.73;11.83;;;9.60;97.40;;;;;;5032832;28;20556;-73
2022/01/01 07:44:15;;;;;;;27.30;12.70;;;9.60;97.50;;;;;;5032141;28;20186;-72
2022/01/01 07:46:40;;;;;;;44.80;13.93;;;9.60;98.60;;;;;;5032842;28;20240;-70
2022/01/01 07:49:06;;;;;;;26.77;13.83;;;9.60;99.70;;;;;;5034901;28;20536;-72
2022/01/01 07:51:32;;;;;;;20.43;11.90;;;9.70;99.90;;;;;;5037152;28;20189;-71
2022/01/01 07:53:58;;;;;;;40.30;11.40;;;9.60;99.90;;;;;;5036404;28;20199;-72
2022/01/01 07:56:23;;;;;;;19.93;11.50;;;9.70;99.90;;;;;;5036879;28;20953;-72
2022/01/01 07:58:49;;;;;;;23.40;12.07;;;9.60;99.90;;;;;;5036926;28;20190;-73
2022/01/01 08:01:15;;;;;;;36.00;12.50;;;9.70;99.90;;;;;;5036696;28;20176;-73
2022/01/01 08:03:40;;;;;;;21.63;10.63;;;9.70;99.90;;;;;;5035220;28;20276;-71
2022/01/01 08:06:06;;;;;;;17.80;11.00;;;9.70;99.90;;;;;;5036931;28;20280;-71
2022/01/01 08:08:32;;;;;;;26.57;13.07;;;9.70;99.90;;;;;;5036726;28;20255;-72
2022/01/01 08:10:58;;;;;;;29.30;11.80;;;9.60;99.90;;;;;;5036611;28;20246;-71
2022/01/01 08:13:25;;;;;;;29.30;11.80;;;9.70;99.90;;;;;;5035819;28;20213;-72
2022/01/01 08:15:55;;;;;;;19.23;10.60;;;9.70;99.90;;;;;;5036525;28;20531;-72
2022/01/01 08:18:21;;;;;;;38.27;13.27;;;9.70;99.90;;;;;;5036496;28;20909;-72
2022/01/01 08:20:47;;;;;;;20.67;11.40;;;9.60;99.90;;;;;;5036744;28;20467;-72
2022/01/01 08:23:14;;;;;;;24.77;10.60;;;9.60;99.90;;;;;;5035798;28;20404;-73
2022/01/01 08:25:40;;;;;;;37.43;11.03;;;9.60;99.90;;;;;;5035228;28;20771;-71
2022/01/01 08:28:09;;;;;;;17.87;11.40;;;9.60;99.90;;;;;;5036755;28;20489;-71
2022/01/01 08:30:35;;;;;;;21.07;10.70;;;9.70;99.90;;;;;;5036667;28;20410;-71
2022/01/01 08:33:03;;;;;;;30.20;13.03;;;9.60;99.90;;;;;;5035596;28;20642;-72
2022/01/01 08:35:33;;;;;;;21.30;12.17;;;9.60;99.90;;;;;;5035857;28;20481;-72
2022/01/01 08:38:00;;;;;;;24.40;11.90;;;9.60;99.90;;;;;;5036305;28;20435;-71
2022/01/01 08:40:27;;;;;;;20.87;11.27;;;9.60;99.90;;;;;;5036382;28;20434;-72
2022/01/01 08:42:53;;;;;;;24.63;13.33;;;9.70;99.90;;;;;;5035658;28;20401;-72
2022/01/01 08:45:19;;;;;;;18.40;10.30;;;9.60;99.90;;;;;;5036434;28;20902;-72
2022/01/01 08:47:44;;;;;;;15.80;9.67;;;9.70;99.90;;;;;;5036201;28;20199;-72
2022/01/01 08:50:10;;;;;;;21.33;11.30;;;9.70;99.90;;;;;;5036277;28;20768;-72
2022/01/01 08:52:36;;;;;;;29.00;8.97;;;9.70;99.90;;;;;;5034852;28;20669;-72
2022/01/01 08:55:03;;;;;;;24.37;10.73;;;9.70;99.90;;;;;;5036184;28;20402;-71
2022/01/01 08:57:32;;;;;;;24.63;10.77;;;9.70;99.90;;;;;;5035871;28;20204;-71
2022/01/01 08:59:58;;;;;;;18.60;9.87;;;9.70;99.90;;;;;;5035434;28;20414;-71
2022/01/01 09:02:24;;;;;;;20.20;10.10;;;9.70;99.90;;;;;;5035094;28;20898;-72
2022/01/01 09:04:50;;;;;;;24.43;10.43;;;9.70;99.90;;;;;;5035890;28;20424;-71
2022/01/01 09:07:15;;;;;;;17.70;9.90;;;9.70;99.90;;;;;;5035747;28;20467;-72
2022/01/01 09:09:41;;;;;;;19.50;8.83;;;9.70;99.90;;;;;;5035723;28;20255;-72
2022/01/01 09:12:08;;;;;;;22.60;10.13;;;9.70;99.90;;;;;;5034418;28;20186;-72
2022/01/01 09:14:33;;;;;;;21.10;9.83;;;9.70;99.90;;;;;;5035816;28;20233;-72
2022/01/01 09:16:59;;;;;;;19.50;9.80;;;9.70;99.90;;;;;;5035619;28;20524;-73
2022/01/01 09:19:25;;;;;;;19.83;11.00;;;9.70;99.90;;;;;;5034358;28;20179;-72
2022/01/01 09:21:50;;;;;;;14.60;9.30;;;9.80;99.90;;;;;;5035093;28;20700;-75
2022/01/01 09:24:16;;;;;;;19.90;9.57;;;9.80;99.90;;;;;;5034907;28;20170;-70
2022/01/01 09:26:42;;;;;;;19.93;8.70;;;9.80;99.90;;;;;;5035559;28;20205;-71
2022/01/01 09:29:10;;;;;;;18.30;8.83;;;9.80;99.90;;;;;;5033769;28;20174;-72
2022/01/01 09:31:40;;;;;;;17.67;8.77;;;9.80;99.90;;;;;;5035485;28;20190;-72
2022/01/01 09:34:06;;;;;;;20.17;8.93;;;9.90;99.90;;;;;;5034310;28;20544;-72
2022/01/01 09:36:32;;;;;;;17.67;9.80;;;9.80;99.90;;;;;;5035132;28;20528;-72
2022/01/01 09:38:58;;;;;;;15.27;9.30;;;9.90;99.90;;;;;;5035345;28;20811;-72
2022/01/01 09:41:24;;;;;;;20.30;9.30;;;9.90;99.90;;;;;;5034787;28;20752;-72
2022/01/01 09:43:53;;;;;;;21.73;9.80;;;9.90;99.90;;;;;;5034145;28;20428;-72
2022/01/01 09:46:19;;;;;;;16.67;9.73;;;9.90;99.90;;;;;;5034325;28;20430;-71
2022/01/01 09:48:45;;;;;;;23.57;9.77;;;9.90;99.90;;;;;;5035013;28;20989;-71
2022/01/01 09:51:11;;;;;;;17.63;9.37;;;9.90;99.90;;;;;;5034654;28;20429;-71
2022/01/01 09:53:37;;;;;;;19.67;9.80;;;10.00;99.90;;;;;;5033736;28;20457;-72
2022/01/01 09:56:04;;;;;;;22.40;10.37;;;10.00;99.90;;;;;;5033196;28;20202;-73
2022/01/01 09:58:33;;;;;;;27.10;11.03;;;10.00;99.90;;;;;;5034970;28;20166;-74
2022/01/01 10:01:02;;;;;;;24.13;9.57;;;10.10;99.90;;;;;;5034722;28;20428;-73
2022/01/01 10:03:35;;;;;;;27.43;12.30;;;10.10;99.90;;;;;;5033949;28;20478;-73
2022/01/01 10:06:08;;;;;;;26.73;11.43;;;10.10;99.90;;;;;;5034049;28;20438;-71
2022/01/01 10:08:36;;;;;;;31.77;13.87;;;10.20;99.90;;;;;;5034303;28;20416;-70
2022/01/01 10:11:02;;;;;;;31.17;14.67;;;10.30;99.90;;;;;;5034528;28;20393;-71
2022/01/01 10:13:30;;;;;;;21.87;12.27;;;10.30;99.90;;;;;;5031454;28;20507;-72
2022/01/01 10:15:58;;;;;;;18.50;11.00;;;10.30;99.90;;;;;;5034253;28;20457;-71
2022/01/01 10:18:32;;;;;;;27.33;9.97;;;10.30;99.90;;;;;;5034474;28;20479;-71
2022/01/01 10:21:09;;;;;;;23.30;12.30;;;10.20;99.90;;;;;;5034392;28;20422;-70
2022/01/01 10:23:36;;;;;;;33.03;14.53;;;10.30;99.90;;;;;;5033302;28;20490;-70
2022/01/01 10:29:11;;;;;;;22.53;13.70;;;10.20;99.90;;;;;;5026144;28;20437;-70
2022/01/01 10:31:38;;;;;;;35.03;14.00;;;10.10;99.90;;;;;;5033727;28;20507;-69
2022/01/01 10:34:12;;;;;;;35.67;13.77;;;10.10;99.90;;;;;;5031743;28;20468;-69
2022/01/01 10:36:38;;;;;;;32.50;15.10;;;10.10;99.90;;;;;;5034179;28;20776;-70
2022/01/01 10:39:15;;;;;;;29.93;12.73;;;10.20;99.90;;;;;;5033830;28;20425;-71
2022/01/01 10:41:48;;;;;;;25.50;13.10;;;10.20;99.90;;;;;;5033937;28;20217;-70
2022/01/01 10:44:14;;;;;;;36.97;13.47;;;10.20;99.90;;;;;;5033259;28;21010;-69
2022/01/01 10:46:41;;;;;;;27.97;12.20;;;10.20;99.90;;;;;;5033980;28;20501;-70
2022/01/01 10:49:36;;;;;;;27.83;12.70;;;10.20;99.90;;;;;;5033740;28;20422;-70
2022/01/01 10:52:18;;;;;;;37.87;15.37;;;10.20;99.90;;;;;;5033083;28;20813;-70
2022/01/01 10:54:52;;;;;;;28.67;13.17;;;10.20;99.90;;;;;;5033344;28;20441;-68
2022/01/01 10:57:22;;;;;;;30.77;12.00;;;10.20;99.90;;;;;;5033894;28;20448;-69
2022/01/01 10:59:49;;;;;;;40.47;14.70;;;10.20;99.90;;;;;;5033243;28;20886;-69
2022/01/01 11:02:15;;;;;;;25.87;12.63;;;10.20;99.90;;;;;;5032627;28;20513;-70
2022/01/01 11:04:41;;;;;;;29.93;12.00;;;10.20;99.90;;;;;;5033655;28;20505;-69
2022/01/01 11:07:08;;;;;;;46.97;13.87;;;10.20;99.90;;;;;;5033407;28;20671;-70
2022/01/01 11:09:34;;;;;;;29.60;11.77;;;10.20;99.90;;;;;;5033726;28;20409;-68
2022/01/01 11:12:03;;;;;;;24.20;12.50;;;10.20;99.90;;;;;;5032557;28;20432;-74
2022/01/01 11:14:32;;;;;;;38.83;14.23;;;10.30;99.90;;;;;;5033569;28;20409;-68
2022/01/01 11:17:01;;;;;;;36.17;13.17;;;10.30;99.90;;;;;;5033102;28;20429;-71
2022/01/01 11:19:27;;;;;;;25.20;13.10;;;10.30;99.90;;;;;;5033234;28;20402;-69
2022/01/01 11:21:55;;;;;;;22.83;10.80;;;10.40;99.90;;;;;;5033119;28;20981;-69
2022/01/01 11:24:22;;;;;;;31.60;11.60;;;10.40;99.90;;;;;;5032259;28;20186;-71
2022/01/01 11:26:49;;;;;;;25.17;11.23;;;10.40;99.90;;;;;;5032018;28;20445;-71
2022/01/01 11:29:15;;;;;;;30.07;14.30;;;10.40;99.90;;;;;;5033464;28;20390;-67
2022/01/01 11:31:43;;;;;;;38.00;14.43;;;10.50;99.90;;;;;;5033112;28;20440;-68
2022/01/01 11:34:12;;;;;;;25.67;11.67;;;10.60;99.90;;;;;;5032627;28;20310;-68
2022/01/01 11:36:38;;;;;;;30.70;10.90;;;10.60;99.90;;;;;;5032561;28;20417;-67
2022/01/01 11:39:05;;;;;;;27.33;12.73;;;10.70;99.90;;;;;;5033209;28;20425;-67
2022/01/01 11:41:38;;;;;;;37.30;10.87;;;10.70;99.90;;;;;;5032833;28;20420;-68
2022/01/01 11:44:31;;;;;;;25.97;12.60;;;10.80;99.90;;;;;;5032437;28;20402;-68
2022/01/01 11:47:00;;;;;;;25.97;10.90;;;10.80;99.90;;;;;;5032760;28;20980;-68
2022/01/01 11:49:28;;;;;;;30.87;11.30;;;10.80;99.90;;;;;;5032934;28;20404;-70
2022/01/01 11:51:55;;;;;;;42.13;12.50;;;10.90;99.90;;;;;;5032892;28;20457;-68
2022/01/01 11:54:26;;;;;;;30.43;13.20;;;10.80;99.90;;;;;;5032182;28;20460;-67
2022/01/01 11:56:51;;;;;;;33.63;13.20;;;10.90;99.90;;;;;;5032591;28;20425;-68
2022/01/01 11:59:37;;;;;;;29.93;11.13;;;10.90;99.90;;;;;;5032809;28;20419;-68
2022/01/01 12:02:05;;;;;;;42.50;12.70;;;10.90;99.90;;;;;;5032204;28;20218;-68
2022/01/01 12:04:35;;;;;;;40.73;14.67;;;10.90;99.90;;;;;;5032793;28;20426;-67
2022/01/01 12:07:11;;;;;;;39.40;13.93;;;10.90;99.90;;;;;;5031661;28;20430;-69
2022/01/01 12:10:04;;;;;;;28.63;12.50;;;10.90;99.90;;;;;;5033051;28;20425;-67
2022/01/01 12:12:53;;;;;;;34.27;12.67;;;10.90;99.90;;;;;;5030911;28;20458;-70
2022/01/01 12:15:24;;;;;;;33.30;15.33;;;11.00;99.90;;;;;;5032601;28;20422;-68
2022/01/01 12:17:53;;;;;;;39.90;14.47;;;11.00;99.90;;;;;;5033106;28;20398;-68
2022/01/01 12:20:26;;;;;;;34.93;15.40;;;11.00;99.90;;;;;;5032760;28;20783;-68
2022/01/01 12:22:51;;;;;;;34.37;14.03;;;11.00;99.90;;;;;;5032053;28;20925;-68
2022/01/01 12:25:26;;;;;;;44.67;17.20;;;11.00;99.90;;;;;;5032405;28;20418;-67
2022/01/01 12:27:54;;;;;;;39.47;15.30;;;11.10;99.90;;;;;;5032608;28;20182;-70
2022/01/01 12:31:03;;;;;;;42.93;18.03;;;11.00;99.90;;;;;;5032923;28;20911;-67
2022/01/01 12:33:38;;;;;;;41.00;16.90;;;11.10;99.90;;;;;;5023964;28;21066;-68
2022/01/01 12:36:06;;;;;;;40.07;15.33;;;11.10;99.90;;;;;;5029474;28;20516;-69
2022/01/01 12:38:33;;;;;;;46.77;17.03;;;11.10;99.90;;;;;;5036331;28;21020;-69
2022/01/01 12:41:04;;;;;;;51.03;19.13;;;11.10;99.90;;;;;;5036591;28;20394;-67
2022/01/01 12:43:41;;;;;;;45.77;17.53;;;11.10;99.90;;;;;;5035180;28;20422;-68
2022/01/01 12:46:07;;;;;;;37.60;17.80;;;11.10;99.90;;;;;;5036167;28;20512;-67
2022/01/01 12:48:33;;;;;;;38.33;17.50;;;11.20;99.90;;;;;;5036018;28;20425;-68